sensor_id;sensor_type;location;lat;lon;timestamp;pressure;altitude;pressure_sealevel;temperature;humidity
30873;BME280;17579;42.690;2.586;2024-03-22T00:01:34;97753.59;;;17.90;50.76
30873;BME280;17579;42.690;2.586;2024-03-22T00:04:01;97759.47;;;17.85;51.03
30873;BME280;17579;42.690;2.586;2024-03-22T00:06:33;97753.00;;;17.79;51.22
30873;BME280;17579;42.690;2.586;2024-03-22T00:09:05;97752.00;;;17.80;51.42
30873;BME280;17579;42.690;2.586;2024-03-22T00:11:51;97744.63;;;17.82;51.36
30873;BME280;17579;42.690;2.586;2024-03-22T00:14:27;97747.81;;;17.78;51.68
30873;BME280;17579;42.690;2.586;2024-03-22T00:17:19;97740.13;;;17.83;51.51
30873;BME280;17579;42.690;2.586;2024-03-22T00:20:24;97747.00;;;17.77;51.55
30873;BME280;17579;42.690;2.586;2024-03-22T00:23:02;97757.34;;;17.80;51.34
30873;BME280;17579;42.690;2.586;2024-03-22T00:25:30;97752.28;;;17.86;51.17
30873;BME280;17579;42.690;2.586;2024-03-22T00:30:45;97751.94;;;17.89;51.39
30873;BME280;17579;42.690;2.586;2024-03-22T00:33:31;97750.09;;;17.89;50.88
30873;BME280;17579;42.690;2.586;2024-03-22T00:36:10;97745.09;;;17.86;51.06
30873;BME280;17579;42.690;2.586;2024-03-22T00:38:52;97744.91;;;17.88;50.88
30873;BME280;17579;42.690;2.586;2024-03-22T00:41:20;97752.28;;;17.86;50.65
30873;BME280;17579;42.690;2.586;2024-03-22T00:44:07;97748.59;;;17.87;50.60
30873;BME280;17579;42.690;2.586;2024-03-22T00:46:41;97745.56;;;17.90;50.37
30873;BME280;17579;42.690;2.586;2024-03-22T00:49:12;97752.94;;;17.88;50.68
30873;BME280;17579;42.690;2.586;2024-03-22T00:51:39;97736.72;;;17.89;50.67
30873;BME280;17579;42.690;2.586;2024-03-22T00:54:11;97744.91;;;17.88;50.38
30873;BME280;17579;42.690;2.586;2024-03-22T00:56:49;97743.25;;;17.87;50.48
30873;BME280;17579;42.690;2.586;2024-03-22T01:02:19;97743.59;;;17.83;50.26
30873;BME280;17579;42.690;2.586;2024-03-22T01:05:16;97740.44;;;17.80;50.36
30873;BME280;17579;42.690;2.586;2024-03-22T01:08:14;97749.13;;;17.90;49.62
30873;BME280;17579;42.690;2.586;2024-03-22T01:11:07;97742.28;;;17.79;50.10
30873;BME280;17579;42.690;2.586;2024-03-22T01:13:37;97741.75;;;17.84;49.40
30873;BME280;17579;42.690;2.586;2024-03-22T01:19:03;97743.97;;;17.80;49.67
30873;BME280;17579;42.690;2.586;2024-03-22T01:21:29;97742.78;;;17.83;49.78
30873;BME280;17579;42.690;2.586;2024-03-22T01:23:59;97736.59;;;17.82;49.64
30873;BME280;17579;42.690;2.586;2024-03-22T01:26:31;97744.97;;;17.79;49.73
30873;BME280;17579;42.690;2.586;2024-03-22T01:29:16;97736.81;;;17.73;50.06
30873;BME280;17579;42.690;2.586;2024-03-22T01:34:46;97738.31;;;17.75;49.72
30873;BME280;17579;42.690;2.586;2024-03-22T01:37:12;97733.31;;;17.72;50.02
30873;BME280;17579;42.690;2.586;2024-03-22T01:39:56;97725.03;;;17.67;50.22
30873;BME280;17579;42.690;2.586;2024-03-22T01:42:37;97727.16;;;17.72;49.75
30873;BME280;17579;42.690;2.586;2024-03-22T01:45:17;97721.31;;;17.68;50.07
30873;BME280;17579;42.690;2.586;2024-03-22T01:47:54;97717.63;;;17.69;50.16
30873;BME280;17579;42.690;2.586;2024-03-22T01:50:26;97708.25;;;17.73;50.11
30873;BME280;17579;42.690;2.586;2024-03-22T01:55:34;97709.91;;;17.74;50.11
30873;BME280;17579;42.690;2.586;2024-03-22T01:58:12;97709.72;;;17.76;50.33
30873;BME280;17579;42.690;2.586;2024-03-22T02:00:50;97702.88;;;17.73;50.06
30873;BME280;17579;42.690;2.586;2024-03-22T02:03:18;97702.72;;;17.75;49.97
30873;BME280;17579;42.690;2.586;2024-03-22T02:05:50;97700.84;;;17.75;50.00
30873;BME280;17579;42.690;2.586;2024-03-22T02:08:18;97702.88;;;17.73;50.02
30873;BME280;17579;42.690;2.586;2024-03-22T02:16:23;97691.09;;;17.82;49.59
30873;BME280;17579;42.690;2.586;2024-03-22T02:18:48;97685.09;;;17.80;49.74
30873;BME280;17579;42.690;2.586;2024-03-22T02:21:30;97670.44;;;17.76;49.50
30873;BME280;17579;42.690;2.586;2024-03-22T02:23:56;97672.56;;;17.81;49.17
30873;BME280;17579;42.690;2.586;2024-03-22T02:26:22;97668.19;;;17.80;49.55
30873;BME280;17579;42.690;2.586;2024-03-22T02:28:53;97661.56;;;17.76;49.83
30873;BME280;17579;42.690;2.586;2024-03-22T02:31:24;97658.72;;;17.77;49.43
30873;BME280;17579;42.690;2.586;2024-03-22T02:36:58;97642.00;;;17.75;48.92
30873;BME280;17579;42.690;2.586;2024-03-22T02:39:35;97642.28;;;17.80;48.63
30873;BME280;17579;42.690;2.586;2024-03-22T02:42:11;97641.91;;;17.69;48.70
30873;BME280;17579;42.690;2.586;2024-03-22T02:44:40;97643.97;;;17.58;48.43
30873;BME280;17579;42.690;2.586;2024-03-22T02:47:09;97634.19;;;17.51;48.52
30873;BME280;17579;42.690;2.586;2024-03-22T02:49:38;97628.53;;;17.45;48.58
30873;BME280;17579;42.690;2.586;2024-03-22T02:52:23;97625.59;;;17.40;48.74
30873;BME280;17579;42.690;2.586;2024-03-22T02:55:13;97625.28;;;17.35;48.60
30873;BME280;17579;42.690;2.586;2024-03-22T02:57:43;97620.78;;;17.36;48.56
30873;BME280;17579;42.690;2.586;2024-03-22T03:00:21;97611.09;;;17.35;49.08
30873;BME280;17579;42.690;2.586;2024-03-22T03:03:02;97603.44;;;17.31;49.07
30873;BME280;17579;42.690;2.586;2024-03-22T03:05:30;97599.84;;;17.39;48.81
30873;BME280;17579;42.690;2.586;2024-03-22T03:08:12;97595.69;;;17.37;49.29
30873;BME280;17579;42.690;2.586;2024-03-22T03:10:37;97591.84;;;17.39;48.77
30873;BME280;17579;42.690;2.586;2024-03-22T03:13:17;97581.31;;;17.38;48.73
30873;BME280;17579;42.690;2.586;2024-03-22T03:16:11;97580.13;;;17.40;48.48
30873;BME280;17579;42.690;2.586;2024-03-22T03:18:48;97568.13;;;17.36;48.45
30873;BME280;17579;42.690;2.586;2024-03-22T03:21:41;97568.13;;;17.36;48.72
30873;BME280;17579;42.690;2.586;2024-03-22T03:24:19;97559.56;;;17.41;48.11
30873;BME280;17579;42.690;2.586;2024-03-22T03:26:47;97562.91;;;17.43;47.61
30873;BME280;17579;42.690;2.586;2024-03-22T03:29:29;97553.41;;;17.40;47.79
30873;BME280;17579;42.690;2.586;2024-03-22T03:32:11;97559.00;;;17.45;47.72
30873;BME280;17579;42.690;2.586;2024-03-22T03:34:42;97562.91;;;17.43;47.45
30873;BME280;17579;42.690;2.586;2024-03-22T03:37:12;97559.38;;;17.42;47.58
30873;BME280;17579;42.690;2.586;2024-03-22T03:39:43;97567.41;;;17.42;47.10
30873;BME280;17579;42.690;2.586;2024-03-22T03:42:10;97569.44;;;17.40;47.44
30873;BME280;17579;42.690;2.586;2024-03-22T03:44:56;97566.28;;;17.37;47.21
30873;BME280;17579;42.690;2.586;2024-03-22T03:47:30;97577.88;;;17.29;47.81
30873;BME280;17579;42.690;2.586;2024-03-22T03:50:12;97566.88;;;17.24;47.68
30873;BME280;17579;42.690;2.586;2024-03-22T03:52:45;97572.22;;;17.24;47.88
30873;BME280;17579;42.690;2.586;2024-03-22T03:55:29;97574.72;;;17.25;48.19
30873;BME280;17579;42.690;2.586;2024-03-22T03:58:11;97579.25;;;17.25;47.85
30873;BME280;17579;42.690;2.586;2024-03-22T04:00:40;97570.47;;;17.16;48.37
30873;BME280;17579;42.690;2.586;2024-03-22T04:03:12;97578.19;;;17.11;48.61
30873;BME280;17579;42.690;2.586;2024-03-22T04:06:21;97573.56;;;17.05;49.02
30873;BME280;17579;42.690;2.586;2024-03-22T04:08:52;97571.19;;;17.10;48.40
30873;BME280;17579;42.690;2.586;2024-03-22T04:11:28;97568.69;;;17.08;48.51
30873;BME280;17579;42.690;2.586;2024-03-22T04:13:59;97576.91;;;17.07;48.86
30873;BME280;17579;42.690;2.586;2024-03-22T04:16:51;97577.22;;;17.04;49.07
30873;BME280;17579;42.690;2.586;2024-03-22T04:19:45;97576.22;;;17.05;48.65
30873;BME280;17579;42.690;2.586;2024-03-22T04:22:33;97576.94;;;16.99;48.93
30873;BME280;17579;42.690;2.586;2024-03-22T04:25:20;97583.78;;;17.01;48.85
30873;BME280;17579;42.690;2.586;2024-03-22T04:27:51;97578.69;;;16.91;48.90
30873;BME280;17579;42.690;2.586;2024-03-22T04:30:35;97583.38;;;16.81;49.14
30873;BME280;17579;42.690;2.586;2024-03-22T04:33:23;97579.84;;;16.89;48.63
30873;BME280;17579;42.690;2.586;2024-03-22T04:35:53;97576.69;;;16.85;48.51
30873;BME280;17579;42.690;2.586;2024-03-22T04:38:36;97579.88;;;16.80;49.00
30873;BME280;17579;42.690;2.586;2024-03-22T04:41:26;97578.03;;;16.81;48.64
30873;BME280;17579;42.690;2.586;2024-03-22T04:44:01;97570.69;;;16.83;48.42
30873;BME280;17579;42.690;2.586;2024-03-22T04:46:49;97571.56;;;16.75;48.38
30873;BME280;17579;42.690;2.586;2024-03-22T04:49:21;97575.88;;;16.76;48.68
30873;BME280;17579;42.690;2.586;2024-03-22T04:51:49;97575.06;;;16.76;48.76
30873;BME280;17579;42.690;2.586;2024-03-22T04:54:15;97580.03;;;16.79;48.45
30873;BME280;17579;42.690;2.586;2024-03-22T04:56:58;97578.22;;;16.79;48.49
30873;BME280;17579;42.690;2.586;2024-03-22T04:59:44;97576.19;;;16.90;48.32
30873;BME280;17579;42.690;2.586;2024-03-22T05:02:11;97573.59;;;16.96;48.59
30873;BME280;17579;42.690;2.586;2024-03-22T05:04:39;97568.56;;;17.02;48.27
30873;BME280;17579;42.690;2.586;2024-03-22T05:07:05;97567.22;;;17.06;48.64
30873;BME280;17579;42.690;2.586;2024-03-22T05:09:41;97564.53;;;17.06;48.77
30873;BME280;17579;42.690;2.586;2024-03-22T05:12:18;97559.38;;;17.04;48.80
30873;BME280;17579;42.690;2.586;2024-03-22T05:15:03;97563.41;;;17.00;49.30
30873;BME280;17579;42.690;2.586;2024-03-22T05:17:38;97564.81;;;17.11;49.14
30873;BME280;17579;42.690;2.586;2024-03-22T05:20:11;97560.31;;;17.11;49.67
30873;BME280;17579;42.690;2.586;2024-03-22T05:23:00;97565.84;;;17.10;49.49
30873;BME280;17579;42.690;2.586;2024-03-22T05:25:38;97562.50;;;17.08;49.93
30873;BME280;17579;42.690;2.586;2024-03-22T05:28:06;97558.09;;;17.15;50.02
30873;BME280;17579;42.690;2.586;2024-03-22T05:30:41;97556.38;;;17.22;49.62
30873;BME280;17579;42.690;2.586;2024-03-22T05:33:12;97554.75;;;17.21;49.84
30873;BME280;17579;42.690;2.586;2024-03-22T05:43:56;97549.13;;;17.31;49.67
30873;BME280;17579;42.690;2.586;2024-03-22T05:46:59;97554.75;;;17.21;49.61
30873;BME280;17579;42.690;2.586;2024-03-22T05:49:36;97553.53;;;17.24;49.42
30873;BME280;17579;42.690;2.586;2024-03-22T05:52:27;97559.53;;;17.26;49.28
30873;BME280;17579;42.690;2.586;2024-03-22T05:55:10;97555.06;;;17.18;49.07
30873;BME280;17579;42.690;2.586;2024-03-22T05:57:41;97559.22;;;17.21;48.41
30873;BME280;17579;42.690;2.586;2024-03-22T06:00:35;97561.28;;;17.19;48.46
30873;BME280;17579;42.690;2.586;2024-03-22T06:03:06;97560.41;;;17.18;48.50
30873;BME280;17579;42.690;2.586;2024-03-22T06:05:33;97561.63;;;17.16;48.26
30873;BME280;17579;42.690;2.586;2024-03-22T06:08:25;97560.50;;;17.10;48.26
30873;BME280;17579;42.690;2.586;2024-03-22T06:10:52;97556.16;;;17.09;48.09
30873;BME280;17579;42.690;2.586;2024-03-22T06:13:21;97566.66;;;17.10;47.81
30873;BME280;17579;42.690;2.586;2024-03-22T06:16:10;97558.47;;;17.12;47.79
30873;BME280;17579;42.690;2.586;2024-03-22T06:18:45;97553.63;;;17.16;47.43
30873;BME280;17579;42.690;2.586;2024-03-22T06:21:23;97551.88;;;17.23;47.77
30873;BME280;17579;42.690;2.586;2024-03-22T06:23:56;97546.94;;;17.35;47.35
30873;BME280;17579;42.690;2.586;2024-03-22T06:26:39;97545.00;;;17.43;47.84
30873;BME280;17579;42.690;2.586;2024-03-22T06:29:07;97552.53;;;17.63;46.97
30873;BME280;17579;42.690;2.586;2024-03-22T06:31:44;97547.06;;;17.71;47.37
30873;BME280;17579;42.690;2.586;2024-03-22T06:37:02;97548.03;;;17.93;46.06
30873;BME280;17579;42.690;2.586;2024-03-22T06:39:27;97552.66;;;17.99;46.18
30873;BME280;17579;42.690;2.586;2024-03-22T06:42:06;97551.25;;;18.04;46.37
30873;BME280;17579;42.690;2.586;2024-03-22T06:44:32;97560.66;;;18.14;45.86
30873;BME280;17579;42.690;2.586;2024-03-22T06:47:23;97554.22;;;18.24;45.75
30873;BME280;17579;42.690;2.586;2024-03-22T06:50:12;97558.75;;;18.23;46.11
30873;BME280;17579;42.690;2.586;2024-03-22T06:52:41;97561.94;;;18.33;45.65
30873;BME280;17579;42.690;2.586;2024-03-22T06:55:12;97555.22;;;18.38;45.34
30873;BME280;17579;42.690;2.586;2024-03-22T06:57:41;97557.41;;;18.34;45.64
30873;BME280;17579;42.690;2.586;2024-03-22T07:00:31;97562.34;;;18.30;46.05
30873;BME280;17579;42.690;2.586;2024-03-22T07:03:36;97551.50;;;18.39;46.14
30873;BME280;17579;42.690;2.586;2024-03-22T07:06:20;97558.41;;;18.48;45.89
30873;BME280;17579;42.690;2.586;2024-03-22T07:09:06;97554.16;;;18.53;46.02
30873;BME280;17579;42.690;2.586;2024-03-22T07:11:52;97558.47;;;18.55;46.20
30873;BME280;17579;42.690;2.586;2024-03-22T07:15:09;97558.94;;;18.58;46.62
30873;BME280;17579;42.690;2.586;2024-03-22T07:18:15;97558.84;;;18.66;46.25
30873;BME280;17579;42.690;2.586;2024-03-22T07:24:12;97572.84;;;18.83;46.17
30873;BME280;17579;42.690;2.586;2024-03-22T07:26:55;97576.31;;;18.99;45.63
30873;BME280;17579;42.690;2.586;2024-03-22T07:33:07;97578.34;;;19.18;45.64
30873;BME280;17579;42.690;2.586;2024-03-22T07:42:31;97573.56;;;19.35;45.61
30873;BME280;17579;42.690;2.586;2024-03-22T07:45:20;97576.06;;;19.37;45.97
30873;BME280;17579;42.690;2.586;2024-03-22T07:51:23;97570.66;;;19.59;45.52
30873;BME280;17579;42.690;2.586;2024-03-22T07:57:37;97570.13;;;19.70;45.35
30873;BME280;17579;42.690;2.586;2024-03-22T08:00:28;97567.25;;;19.78;45.32
30873;BME280;17579;42.690;2.586;2024-03-22T08:03:25;97571.09;;;19.90;44.66
30873;BME280;17579;42.690;2.586;2024-03-22T08:06:09;97573.66;;;20.05;43.91
30873;BME280;17579;42.690;2.586;2024-03-22T08:08:46;97579.72;;;20.14;43.87
30873;BME280;17579;42.690;2.586;2024-03-22T08:11:22;97570.50;;;20.30;43.49
30873;BME280;17579;42.690;2.586;2024-03-22T08:13:51;97581.72;;;20.40;43.11
30873;BME280;17579;42.690;2.586;2024-03-22T08:16:33;97577.41;;;20.53;43.20
30873;BME280;17579;42.690;2.586;2024-03-22T08:19:01;97570.84;;;20.62;42.68
30873;BME280;17579;42.690;2.586;2024-03-22T08:21:31;97574.81;;;20.73;42.74
30873;BME280;17579;42.690;2.586;2024-03-22T08:24:01;97575.06;;;20.85;42.29
30873;BME280;17579;42.690;2.586;2024-03-22T08:26:34;97576.53;;;20.94;42.20
30873;BME280;17579;42.690;2.586;2024-03-22T08:29:10;97575.31;;;21.03;41.89
30873;BME280;17579;42.690;2.586;2024-03-22T08:31:36;97578.22;;;21.08;42.16
30873;BME280;17579;42.690;2.586;2024-03-22T08:34:09;97583.00;;;21.20;41.59
30873;BME280;17579;42.690;2.586;2024-03-22T08:36:46;97581.13;;;21.27;41.89
30873;BME280;17579;42.690;2.586;2024-03-22T08:39:33;97584.44;;;21.36;41.15
30873;BME280;17579;42.690;2.586;2024-03-22T08:42:01;97573.50;;;21.44;40.52
30873;BME280;17579;42.690;2.586;2024-03-22T08:47:33;97588.22;;;21.68;40.06
30873;BME280;17579;42.690;2.586;2024-03-22T08:50:18;97583.25;;;21.78;40.40
30873;BME280;17579;42.690;2.586;2024-03-22T08:52:45;97592.13;;;21.86;40.92
30873;BME280;17579;42.690;2.586;2024-03-22T08:55:23;97590.66;;;21.96;40.82
30873;BME280;17579;42.690;2.586;2024-03-22T08:57:52;97591.28;;;22.05;40.92
30873;BME280;17579;42.690;2.586;2024-03-22T09:03:22;97596.00;;;22.23;40.31
30873;BME280;17579;42.690;2.586;2024-03-22T09:05:56;97596.19;;;22.28;39.97
30873;BME280;17579;42.690;2.586;2024-03-22T09:08:36;97592.47;;;22.36;39.54
30873;BME280;17579;42.690;2.586;2024-03-22T09:11:04;97593.47;;;22.42;39.52
30873;BME280;17579;42.690;2.586;2024-03-22T09:13:30;97593.66;;;22.54;39.31
30873;BME280;17579;42.690;2.586;2024-03-22T09:16:20;97591.53;;;22.62;39.55
30873;BME280;17579;42.690;2.586;2024-03-22T09:18:46;97593.78;;;22.65;39.23
30873;BME280;17579;42.690;2.586;2024-03-22T09:21:15;97595.66;;;22.72;38.54
30873;BME280;17579;42.690;2.586;2024-03-22T09:23:52;97594.97;;;22.83;38.48
30873;BME280;17579;42.690;2.586;2024-03-22T09:26:25;97595.34;;;22.87;38.40
30873;BME280;17579;42.690;2.586;2024-03-22T09:28:58;97596.81;;;22.89;38.43
30873;BME280;17579;42.690;2.586;2024-03-22T09:31:31;97600.06;;;22.98;38.22
30873;BME280;17579;42.690;2.586;2024-03-22T09:34:04;97608.56;;;23.01;38.21
30873;BME280;17579;42.690;2.586;2024-03-22T09:36:34;97603.97;;;23.09;38.60
30873;BME280;17579;42.690;2.586;2024-03-22T09:39:13;97612.34;;;23.32;37.96
30873;BME280;17579;42.690;2.586;2024-03-22T09:41:47;97608.13;;;23.43;37.94
30873;BME280;17579;42.690;2.586;2024-03-22T09:44:23;97611.59;;;23.50;39.04
30873;BME280;17579;42.690;2.586;2024-03-22T09:46:55;97610.28;;;23.60;38.63
30873;BME280;17579;42.690;2.586;2024-03-22T09:49:43;97607.13;;;23.63;39.22
30873;BME280;17579;42.690;2.586;2024-03-22T09:52:22;97612.53;;;23.63;38.69
30873;BME280;17579;42.690;2.586;2024-03-22T09:54:51;97602.63;;;23.57;38.67
30873;BME280;17579;42.690;2.586;2024-03-22T09:57:21;97608.78;;;23.64;39.79
30873;BME280;17579;42.690;2.586;2024-03-22T09:59:46;97604.75;;;23.48;40.58
30873;BME280;17579;42.690;2.586;2024-03-22T10:02:22;97591.91;;;23.18;40.91
30873;BME280;17579;42.690;2.586;2024-03-22T10:04:51;97598.19;;;22.98;42.02
30873;BME280;17579;42.690;2.586;2024-03-22T10:07:22;97606.44;;;22.72;42.01
30873;BME280;17579;42.690;2.586;2024-03-22T10:10:07;97613.59;;;22.39;42.84
30873;BME280;17579;42.690;2.586;2024-03-22T10:12:40;97611.13;;;22.38;43.33
30873;BME280;17579;42.690;2.586;2024-03-22T10:15:20;97613.38;;;22.41;43.59
30873;BME280;17579;42.690;2.586;2024-03-22T10:17:56;97610.09;;;22.39;43.72
30873;BME280;17579;42.690;2.586;2024-03-22T10:20:31;97610.06;;;22.25;44.02
30873;BME280;17579;42.690;2.586;2024-03-22T10:23:08;97606.59;;;22.11;43.85
30873;BME280;17579;42.690;2.586;2024-03-22T10:25:40;97603.91;;;22.05;44.42
30873;BME280;17579;42.690;2.586;2024-03-22T10:28:13;97604.13;;;21.96;44.08
30873;BME280;17579;42.690;2.586;2024-03-22T10:30:47;97615.34;;;21.87;44.11
30873;BME280;17579;42.690;2.586;2024-03-22T10:33:41;97613.69;;;21.92;44.11
30873;BME280;17579;42.690;2.586;2024-03-22T10:36:22;97605.78;;;21.97;44.42
30873;BME280;17579;42.690;2.586;2024-03-22T10:38:51;97598.94;;;21.95;44.70
30873;BME280;17579;42.690;2.586;2024-03-22T10:41:28;97599.38;;;21.98;45.79
30873;BME280;17579;42.690;2.586;2024-03-22T10:43:53;97594.16;;;22.04;45.33
30873;BME280;17579;42.690;2.586;2024-03-22T10:46:52;97585.06;;;22.05;45.36
30873;BME280;17579;42.690;2.586;2024-03-22T10:49:20;97595.63;;;22.06;45.84
30873;BME280;17579;42.690;2.586;2024-03-22T10:52:02;97590.22;;;22.13;45.76
30873;BME280;17579;42.690;2.586;2024-03-22T10:54:47;97587.09;;;22.23;45.43
30873;BME280;17579;42.690;2.586;2024-03-22T10:57:16;97582.94;;;22.20;45.32
30873;BME280;17579;42.690;2.586;2024-03-22T10:59:49;97581.50;;;22.18;45.10
30873;BME280;17579;42.690;2.586;2024-03-22T11:02:43;97593.53;;;22.15;45.18
30873;BME280;17579;42.690;2.586;2024-03-22T11:05:17;97581.91;;;22.21;45.20
30873;BME280;17579;42.690;2.586;2024-03-22T11:07:46;97574.44;;;22.23;44.52
30873;BME280;17579;42.690;2.586;2024-03-22T11:10:16;97570.88;;;22.29;45.02
30873;BME280;17579;42.690;2.586;2024-03-22T11:12:48;97566.75;;;22.40;44.36
30873;BME280;17579;42.690;2.586;2024-03-22T11:18:28;97560.53;;;22.40;42.88
30873;BME280;17579;42.690;2.586;2024-03-22T11:21:02;97562.41;;;22.39;42.14
30873;BME280;17579;42.690;2.586;2024-03-22T11:23:40;97553.22;;;22.54;41.33
30873;BME280;17579;42.690;2.586;2024-03-22T11:26:17;97559.41;;;22.61;40.56
30873;BME280;17579;42.690;2.586;2024-03-22T11:28:51;97546.94;;;22.66;39.80
30873;BME280;17579;42.690;2.586;2024-03-22T11:31:17;97552.38;;;22.60;39.67
30873;BME280;17579;42.690;2.586;2024-03-22T11:34:09;97539.94;;;22.59;40.00
30873;BME280;17579;42.690;2.586;2024-03-22T11:36:45;97549.88;;;22.58;38.74
30873;BME280;17579;42.690;2.586;2024-03-22T11:39:14;97545.31;;;22.59;38.50
30873;BME280;17579;42.690;2.586;2024-03-22T11:41:55;97543.78;;;22.70;38.80
30873;BME280;17579;42.690;2.586;2024-03-22T11:44:32;97549.59;;;22.73;38.05
30873;BME280;17579;42.690;2.586;2024-03-22T11:47:05;97543.13;;;22.81;37.60
30873;BME280;17579;42.690;2.586;2024-03-22T11:49:51;97536.47;;;22.83;37.08
30873;BME280;17579;42.690;2.586;2024-03-22T11:52:31;97532.28;;;22.88;36.92
30873;BME280;17579;42.690;2.586;2024-03-22T11:54:59;97529.16;;;22.91;36.05
30873;BME280;17579;42.690;2.586;2024-03-22T11:57:48;97538.72;;;22.87;37.19
30873;BME280;17579;42.690;2.586;2024-03-22T12:00:22;97530.53;;;23.00;36.08
30873;BME280;17579;42.690;2.586;2024-03-22T12:03:04;97530.75;;;22.98;35.97
30873;BME280;17579;42.690;2.586;2024-03-22T12:05:34;97522.28;;;22.95;35.75
30873;BME280;17579;42.690;2.586;2024-03-22T12:08:19;97526.00;;;23.00;36.09
30873;BME280;17579;42.690;2.586;2024-03-22T12:10:53;97522.84;;;23.04;35.69
30873;BME280;17579;42.690;2.586;2024-03-22T12:13:32;97505.84;;;23.03;36.27
30873;BME280;17579;42.690;2.586;2024-03-22T12:16:23;97505.84;;;23.03;36.29
30873;BME280;17579;42.690;2.586;2024-03-22T12:19:00;97508.31;;;23.05;35.79
30873;BME280;17579;42.690;2.586;2024-03-22T12:21:26;97512.25;;;23.09;35.36
30873;BME280;17579;42.690;2.586;2024-03-22T12:24:03;97507.03;;;23.07;36.05
30873;BME280;17579;42.690;2.586;2024-03-22T12:26:54;97508.47;;;23.10;36.55
30873;BME280;17579;42.690;2.586;2024-03-22T12:29:34;97494.53;;;23.20;35.72
30873;BME280;17579;42.690;2.586;2024-03-22T12:32:14;97493.31;;;23.15;35.22
30873;BME280;17579;42.690;2.586;2024-03-22T12:34:45;97490.34;;;23.24;35.47
30873;BME280;17579;42.690;2.586;2024-03-22T12:40:32;97478.22;;;23.33;35.30
30873;BME280;17579;42.690;2.586;2024-03-22T12:43:17;97472.06;;;23.26;35.22
30873;BME280;17579;42.690;2.586;2024-03-22T12:49:04;97462.16;;;23.45;34.53
30873;BME280;17579;42.690;2.586;2024-03-22T12:51:35;97463.47;;;23.35;34.22
30873;BME280;17579;42.690;2.586;2024-03-22T12:54:22;97464.41;;;23.23;35.32
30873;BME280;17579;42.690;2.586;2024-03-22T12:56:51;97459.94;;;23.35;33.99
30873;BME280;17579;42.690;2.586;2024-03-22T12:59:31;97448.31;;;23.34;34.44
30873;BME280;17579;42.690;2.586;2024-03-22T13:02:07;97452.88;;;23.34;34.44
30873;BME280;17579;42.690;2.586;2024-03-22T13:04:44;97454.91;;;23.39;33.97
30873;BME280;17579;42.690;2.586;2024-03-22T13:07:35;97451.34;;;23.45;34.55
30873;BME280;17579;42.690;2.586;2024-03-22T13:10:15;97437.94;;;23.75;34.10
30873;BME280;17579;42.690;2.586;2024-03-22T13:12:48;97439.06;;;24.04;33.51
30873;BME280;17579;42.690;2.586;2024-03-22T13:15:29;97437.88;;;24.31;33.04
30873;BME280;17579;42.690;2.586;2024-03-22T13:18:22;97435.63;;;24.58;32.52
30873;BME280;17579;42.690;2.586;2024-03-22T13:21:00;97424.34;;;24.92;31.95
30873;BME280;17579;42.690;2.586;2024-03-22T13:23:25;97425.28;;;25.21;31.49
30873;BME280;17579;42.690;2.586;2024-03-22T13:26:09;97420.38;;;25.53;31.09
30873;BME280;17579;42.690;2.586;2024-03-22T13:28:39;97413.72;;;25.73;30.26
30873;BME280;17579;42.690;2.586;2024-03-22T13:31:16;97407.72;;;25.83;30.10
30873;BME280;17579;42.690;2.586;2024-03-22T13:33:43;97399.22;;;25.91;29.84
30873;BME280;17579;42.690;2.586;2024-03-22T13:36:21;97409.81;;;25.92;30.15
30873;BME280;17579;42.690;2.586;2024-03-22T13:39:00;97406.13;;;25.99;29.15
30873;BME280;17579;42.690;2.586;2024-03-22T13:42:01;97396.59;;;26.08;29.76
30873;BME280;17579;42.690;2.586;2024-03-22T13:44:42;97392.22;;;26.36;29.91
30873;BME280;17579;42.690;2.586;2024-03-22T13:47:15;97396.19;;;26.74;29.70
30873;BME280;17579;42.690;2.586;2024-03-22T13:49:44;97390.00;;;26.78;28.51
30873;BME280;17579;42.690;2.586;2024-03-22T13:52:32;97394.59;;;26.61;28.53
30873;BME280;17579;42.690;2.586;2024-03-22T13:55:27;97382.53;;;26.40;28.62
30873;BME280;17579;42.690;2.586;2024-03-22T13:58:15;97382.69;;;26.33;28.76
30873;BME280;17579;42.690;2.586;2024-03-22T14:00:47;97374.03;;;26.19;28.72
30873;BME280;17579;42.690;2.586;2024-03-22T14:03:55;97371.53;;;26.30;28.98
30873;BME280;17579;42.690;2.586;2024-03-22T14:06:10;97366.66;;;26.32;28.41
30873;BME280;17579;42.690;2.586;2024-03-22T14:08:43;97364.19;;;26.30;28.84
30873;BME280;17579;42.690;2.586;2024-03-22T14:11:27;97363.53;;;26.23;28.66
30873;BME280;17579;42.690;2.586;2024-03-22T14:14:06;97364.75;;;26.15;29.01
30873;BME280;17579;42.690;2.586;2024-03-22T14:16:40;97355.78;;;26.15;28.13
30873;BME280;17579;42.690;2.586;2024-03-22T14:19:16;97358.22;;;25.87;28.79
30873;BME280;17579;42.690;2.586;2024-03-22T14:22:09;97352.28;;;25.73;29.27
30873;BME280;17579;42.690;2.586;2024-03-22T14:25:03;97344.44;;;25.89;29.22
30873;BME280;17579;42.690;2.586;2024-03-22T14:27:39;97343.81;;;25.99;28.27
30873;BME280;17579;42.690;2.586;2024-03-22T14:30:10;97340.66;;;25.90;28.50
30873;BME280;17579;42.690;2.586;2024-03-22T14:32:40;97340.72;;;25.78;29.14
30873;BME280;17579;42.690;2.586;2024-03-22T14:35:18;97340.03;;;25.71;28.52
30873;BME280;17579;42.690;2.586;2024-03-22T14:37:47;97333.34;;;25.62;28.77
30873;BME280;17579;42.690;2.586;2024-03-22T14:40:41;97322.44;;;25.45;28.68
30873;BME280;17579;42.690;2.586;2024-03-22T14:45:56;97320.19;;;25.30;28.75
30873;BME280;17579;42.690;2.586;2024-03-22T14:48:25;97327.63;;;25.11;29.46
30873;BME280;17579;42.690;2.586;2024-03-22T14:50:50;97315.50;;;25.13;29.21
30873;BME280;17579;42.690;2.586;2024-03-22T14:53:21;97313.06;;;25.00;29.14
30873;BME280;17579;42.690;2.586;2024-03-22T14:55:55;97314.00;;;24.94;29.83
30873;BME280;17579;42.690;2.586;2024-03-22T14:58:24;97313.41;;;24.92;29.40
30873;BME280;17579;42.690;2.586;2024-03-22T15:01:22;97310.34;;;24.76;29.86
30873;BME280;17579;42.690;2.586;2024-03-22T15:03:55;97304.38;;;24.86;29.57
30873;BME280;17579;42.690;2.586;2024-03-22T15:06:29;97302.84;;;24.90;29.61